createdAt,value
2022-08-26T00:01:24.335Z,100875.09
2022-08-26T00:04:34.824Z,100867.88
2022-08-26T00:07:40.311Z,100860.56
2022-08-26T00:10:49.545Z,100861.56
2022-08-26T00:13:56.009Z,100864.41
2022-08-26T00:17:02.246Z,100865.06
2022-08-26T00:20:10.282Z,100865.31
2022-08-26T00:23:17.008Z,100865.66
2022-08-26T00:26:23.083Z,100870.97
2022-08-26T00:29:37.457Z,100871.44
2022-08-26T00:32:44.066Z,100864.72
2022-08-26T00:35:52.421Z,100866.78
2022-08-26T00:38:58.906Z,100859.56
2022-08-26T00:42:05.099Z,100862.28
2022-08-26T00:45:12.704Z,100860.81
2022-08-26T00:48:23.203Z,100850.75
2022-08-26T00:51:30.001Z,100855.88
2022-08-26T00:54:45.657Z,100851.00
2022-08-26T00:57:52.592Z,100847.97
2022-08-26T01:00:58.319Z,100853.63
2022-08-26T01:04:04.631Z,100849.81
2022-08-26T01:07:11.076Z,100851.53
2022-08-26T01:10:21.559Z,100846.25
2022-08-26T01:13:28.431Z,100842.56
2022-08-26T01:16:35.998Z,100843.38
2022-08-26T01:19:45.294Z,100831.84
2022-08-26T01:22:58.368Z,100836.19
2022-08-26T01:26:19.711Z,100832.38
2022-08-26T01:29:26.651Z,100820.69
2022-08-26T01:32:33.905Z,100816.34
2022-08-26T01:35:39.748Z,100817.81
2022-08-26T01:38:45.795Z,100818.09
2022-08-26T01:41:56.356Z,100820.06
2022-08-26T01:45:09.489Z,100822.78
2022-08-26T01:48:20.167Z,100823.56
2022-08-26T01:51:27.764Z,100826.94
2022-08-26T01:54:33.541Z,100824.03
2022-08-26T01:57:40.662Z,100826.91
2022-08-26T02:00:50.443Z,100815.22
2022-08-26T02:04:04.067Z,100811.22
2022-08-26T02:07:10.620Z,100811.69
2022-08-26T02:10:17.157Z,100813.31
2022-08-26T02:13:30.474Z,100815.56
2022-08-26T02:16:42.383Z,100816.81
2022-08-26T02:19:50.777Z,100814.63
2022-08-26T02:22:56.492Z,100819.25
2022-08-26T02:26:19.356Z,100819.75
2022-08-26T02:29:37.789Z,100810.91
2022-08-26T02:32:44.052Z,100811.41
2022-08-26T02:35:49.958Z,100811.09
2022-08-26T02:38:56.538Z,100819.91
2022-08-26T02:42:03.009Z,100813.81
2022-08-26T02:45:09.715Z,100805.94
2022-08-26T02:48:18.813Z,100800.66
2022-08-26T02:51:24.890Z,100805.81
2022-08-26T02:54:30.521Z,100798.59
2022-08-26T02:57:36.554Z,100794.09
2022-08-26T03:00:53.077Z,100790.13
2022-08-26T03:04:01.556Z,100785.16
2022-08-26T03:07:08.137Z,100788.50
2022-08-26T03:10:14.826Z,100786.59
2022-08-26T03:13:20.116Z,100781.97
2022-08-26T03:16:25.571Z,100789.31
2022-08-26T03:19:38.752Z,100783.06
2022-08-26T03:22:47.660Z,100784.34
2022-08-26T03:25:55.139Z,100784.19
2022-08-26T03:29:20.378Z,100782.91
2022-08-26T03:32:26.986Z,100777.47
2022-08-26T03:35:35.431Z,100777.13
2022-08-26T03:38:41.544Z,100781.97
2022-08-26T03:41:49.225Z,100780.84
2022-08-26T03:48:04.567Z,100776.22
2022-08-26T03:51:19.426Z,100778.56
2022-08-26T03:54:25.306Z,100772.31
2022-08-26T03:57:31.886Z,100763.50
2022-08-26T04:00:37.520Z,100763.84
2022-08-26T04:04:00.417Z,100764.31
2022-08-26T04:07:06.290Z,100770.41
2022-08-26T04:10:14.877Z,100761.25
2022-08-26T04:13:25.493Z,100775.81
2022-08-26T04:16:33.141Z,100771.53
2022-08-26T04:19:39.157Z,100767.44
2022-08-26T04:22:45.914Z,100771.88
2022-08-26T04:25:51.970Z,100773.97
2022-08-26T04:28:57.852Z,100778.84
2022-08-26T04:32:05.233Z,100773.41
2022-08-26T04:35:11.749Z,100772.63
2022-08-26T04:38:19.851Z,100769.97
2022-08-26T04:41:26.077Z,100773.66
2022-08-26T04:44:38.007Z,100771.25
2022-08-26T04:47:45.188Z,100769.66
2022-08-26T04:50:51.691Z,100773.66
2022-08-26T04:53:59.376Z,100770.63
2022-08-26T04:57:05.515Z,100775.78
2022-08-26T05:00:13.734Z,100772.47
2022-08-26T05:03:21.301Z,100772.97
2022-08-26T05:06:27.463Z,100776.81
2022-08-26T05:09:33.246Z,100780.84
2022-08-26T05:12:38.897Z,100776.34
2022-08-26T05:15:47.244Z,100784.81
2022-08-26T05:18:55.135Z,100780.03
2022-08-26T05:22:00.611Z,100786.28
2022-08-26T05:25:07.138Z,100794.28
2022-08-26T05:28:15.614Z,100794.59
2022-08-26T05:31:24.924Z,100794.13
2022-08-26T05:34:31.377Z,100792.84
2022-08-26T05:37:39.183Z,100793.91
2022-08-26T05:40:49.377Z,100788.13
2022-08-26T05:44:00.840Z,100792.75
2022-08-26T05:47:07.869Z,100797.69
2022-08-26T05:50:14.972Z,100796.13
2022-08-26T05:53:22.454Z,100798.84
2022-08-26T05:56:30.292Z,100802.97
2022-08-26T05:59:36.053Z,100806.78
2022-08-26T06:02:44.679Z,100807.03
2022-08-26T06:05:54.338Z,100814.53
2022-08-26T06:09:02.358Z,100806.59
2022-08-26T06:12:08.196Z,100821.47
2022-08-26T06:15:13.927Z,100818.69
2022-08-26T06:18:25.069Z,100826.81
2022-08-26T06:21:34.774Z,100822.91
2022-08-26T06:24:58.737Z,100831.31
2022-08-26T06:28:05.521Z,100826.09
2022-08-26T06:31:11.007Z,100829.44
2022-08-26T06:34:17.079Z,100834.97
2022-08-26T06:37:22.848Z,100830.88
2022-08-26T06:40:29.870Z,100834.72
2022-08-26T06:43:35.567Z,100829.84
2022-08-26T06:46:42.924Z,100826.34
2022-08-26T06:49:51.094Z,100829.09
2022-08-26T06:52:57.137Z,100828.41
2022-08-26T06:56:07.874Z,100827.63
2022-08-26T06:59:16.552Z,100826.44
2022-08-26T07:02:23.761Z,100833.09
2022-08-26T07:05:36.070Z,100830.47
2022-08-26T07:08:41.916Z,100830.72
2022-08-26T07:11:48.639Z,100833.56
2022-08-26T07:14:55.242Z,100835.66
2022-08-26T07:18:03.453Z,100841.59
2022-08-26T07:21:12.595Z,100832.25
2022-08-26T07:24:18.230Z,100837.53
2022-08-26T07:27:23.886Z,100832.84
2022-08-26T07:30:29.646Z,100841.75
2022-08-26T07:33:37.167Z,100846.41
2022-08-26T07:36:42.459Z,100843.88
2022-08-26T07:39:48.130Z,100855.06
2022-08-26T07:42:54.855Z,100849.72
2022-08-26T07:46:00.855Z,100848.56
2022-08-26T07:49:06.387Z,100850.53
2022-08-26T07:52:12.912Z,100849.00
2022-08-26T07:55:18.407Z,100855.28
2022-08-26T07:58:23.894Z,100849.06
2022-08-26T08:01:33.099Z,100852.25
2022-08-26T08:04:38.926Z,100852.03
2022-08-26T08:07:45.594Z,100840.28
2022-08-26T08:10:52.271Z,100849.38
2022-08-26T08:13:58.403Z,100852.56
2022-08-26T08:17:04.803Z,100851.53
2022-08-26T08:20:12.930Z,100852.25
2022-08-26T08:23:18.610Z,100848.66
2022-08-26T08:26:26.582Z,100848.34
2022-08-26T08:29:31.988Z,100856.13
2022-08-26T08:32:39.250Z,100843.03
2022-08-26T08:35:46.523Z,100844.09
2022-08-26T08:38:52.436Z,100842.97
2022-08-26T08:42:29.734Z,100840.84
2022-08-26T08:45:39.825Z,100840.50
2022-08-26T08:48:50.233Z,100840.56
2022-08-26T08:52:05.192Z,100843.41
2022-08-26T08:55:18.110Z,100837.34
2022-08-26T08:58:36.122Z,100830.94
2022-08-26T09:02:01.369Z,100830.13
2022-08-26T09:05:17.154Z,100829.59
2022-08-26T09:08:29.719Z,100828.81
2022-08-26T09:11:36.160Z,100826.28
2022-08-26T09:14:41.785Z,100817.19
2022-08-26T09:18:21.701Z,100820.53
2022-08-26T09:21:27.458Z,100814.31
2022-08-26T09:24:41.862Z,100816.44
2022-08-26T09:27:54.637Z,100819.28
2022-08-26T09:31:25.690Z,100813.97
2022-08-26T09:34:32.425Z,100805.47
2022-08-26T09:41:05.161Z,100804.44
2022-08-26T09:44:14.757Z,100808.06
2022-08-26T09:47:39.764Z,100795.25
2022-08-26T09:51:02.003Z,100796.56
2022-08-26T09:54:08.317Z,100795.94
2022-08-26T09:57:25.442Z,100789.53
2022-08-26T10:00:39.345Z,100798.91
2022-08-26T10:03:47.074Z,100790.16
2022-08-26T10:07:05.316Z,100789.69
2022-08-26T10:10:40.193Z,100788.31
2022-08-26T10:13:57.228Z,100782.59
2022-08-26T10:17:20.440Z,100778.69
2022-08-26T10:20:31.586Z,100771.22
2022-08-26T10:23:50.520Z,100771.81
2022-08-26T10:27:23.249Z,100769.81
2022-08-26T10:30:40.665Z,100771.63
2022-08-26T10:33:48.860Z,100771.81
2022-08-26T10:37:13.604Z,100774.19
2022-08-26T10:40:26.275Z,100763.81
2022-08-26T10:43:48.161Z,100761.59
2022-08-26T10:47:02.000Z,100765.00
2022-08-26T10:50:08.539Z,100760.81
2022-08-26T10:53:25.142Z,100760.38
2022-08-26T10:56:48.714Z,100751.84
2022-08-26T11:00:29.464Z,100743.59
2022-08-26T11:04:11.577Z,100743.56
2022-08-26T11:07:32.728Z,100742.75
2022-08-26T11:10:59.024Z,100741.31
2022-08-26T11:14:09.265Z,100745.25
2022-08-26T11:17:46.658Z,100734.94
2022-08-26T11:20:51.939Z,100736.66
2022-08-26T11:23:57.467Z,100733.13
2022-08-26T11:27:03.380Z,100726.50
2022-08-26T11:30:37.497Z,100722.56
2022-08-26T11:33:52.332Z,100723.06
2022-08-26T11:37:01.867Z,100728.25
2022-08-26T11:40:15.023Z,100722.59
2022-08-26T11:43:26.398Z,100718.38
2022-08-26T11:46:37.943Z,100717.69
2022-08-26T11:49:45.504Z,100722.25
2022-08-26T11:52:57.379Z,100714.72
2022-08-26T11:56:10.056Z,100712.00
2022-08-26T11:59:28.048Z,100708.84
